createdAt,value
2018-09-22T09:02:39.434Z,56.10
2018-09-22T09:05:08.466Z,56.70
2018-09-22T09:07:37.631Z,56.00
2018-09-22T09:10:06.657Z,56.20
2018-09-22T09:12:35.807Z,56.10
2018-09-22T09:15:05.191Z,54.40
2018-09-22T09:17:34.225Z,55.00
2018-09-22T09:20:03.403Z,54.80
2018-09-22T09:22:32.749Z,56.20
2018-09-22T09:25:01.836Z,57.00
2018-09-22T09:27:31.276Z,56.30
2018-09-22T09:30:00.865Z,57.50
2018-09-22T09:32:30.316Z,57.90
2018-09-22T09:34:59.454Z,57.10
2018-09-22T09:37:28.770Z,57.20
2018-09-22T09:39:58.200Z,57.00
2018-09-22T09:42:27.257Z,57.00
2018-09-22T09:44:56.358Z,54.50
2018-09-22T09:47:25.637Z,51.80
2018-09-22T09:49:54.861Z,50.50
2018-09-22T09:52:24.478Z,48.60
2018-09-22T09:54:54.022Z,46.30
2018-09-22T09:57:23.461Z,45.80
2018-09-22T09:59:52.720Z,43.00
2018-09-22T10:02:21.974Z,42.40
2018-09-22T10:04:51.099Z,41.60
2018-09-22T10:07:20.190Z,40.50
2018-09-22T10:09:49.309Z,38.50
2018-09-22T10:12:18.415Z,39.30
2018-09-22T10:14:47.714Z,39.70
2018-09-22T10:17:16.755Z,41.50
2018-09-22T10:19:46.248Z,40.10
2018-09-22T10:22:15.264Z,38.70
2018-09-22T10:24:44.360Z,36.90
2018-09-22T10:27:13.838Z,37.00
2018-09-22T10:29:42.780Z,38.00
2018-09-22T10:32:11.864Z,39.10
2018-09-22T10:34:41.110Z,40.20
2018-09-22T10:37:10.346Z,39.60
2018-09-22T10:39:39.628Z,39.10
2018-09-22T10:42:08.916Z,39.40
2018-09-22T10:44:37.877Z,39.20
2018-09-22T10:47:07.397Z,39.70
2018-09-22T10:49:36.637Z,40.50
2018-09-22T10:52:06.310Z,39.60
2018-09-22T10:54:35.634Z,40.10
2018-09-22T10:57:04.938Z,40.40
2018-09-22T10:59:34.542Z,41.40
2018-09-22T11:02:03.872Z,41.60
2018-09-22T11:04:33.089Z,42.60
2018-09-22T11:07:03.064Z,42.80
2018-09-22T11:09:32.384Z,42.60
2018-09-22T11:12:01.438Z,40.60
2018-09-22T11:14:30.453Z,41.20
2018-09-22T11:16:59.545Z,42.90
2018-09-22T11:19:28.574Z,44.30
2018-09-22T11:21:57.663Z,45.40
2018-09-22T11:24:26.993Z,44.30
2018-09-22T11:26:56.245Z,44.90
2018-09-22T11:29:25.063Z,45.90
2018-09-22T11:31:54.986Z,45.40
2018-09-22T11:34:24.535Z,44.50
2018-09-22T11:36:53.837Z,44.70
2018-09-22T11:39:23.025Z,45.00
2018-09-22T11:41:52.762Z,45.90
2018-09-22T11:44:21.990Z,46.60
2018-09-22T11:46:51.071Z,47.80
2018-09-22T11:49:20.484Z,48.30
2018-09-22T11:51:49.579Z,50.20
2018-09-22T11:54:18.557Z,51.00
2018-09-22T11:56:47.643Z,51.40
2018-09-22T11:59:16.824Z,51.80
2018-09-22T12:01:45.827Z,52.20
2018-09-22T12:04:14.906Z,52.10
2018-09-22T12:06:44.048Z,53.60
2018-09-22T12:09:13.291Z,52.30
2018-09-22T12:11:42.712Z,53.30
2018-09-22T12:14:12.003Z,53.60
2018-09-22T12:16:41.044Z,53.70
2018-09-22T12:19:10.289Z,53.50
2018-09-22T12:21:39.494Z,52.80
2018-09-22T12:24:08.679Z,52.40
2018-09-22T12:26:38.036Z,52.80
2018-09-22T12:29:07.481Z,52.90
2018-09-22T12:31:36.630Z,52.50
2018-09-22T12:34:06.366Z,53.10
2018-09-22T12:36:35.803Z,52.70
2018-09-22T12:39:08.680Z,52.50
2018-09-22T12:41:39.022Z,52.30
2018-09-22T12:44:08.748Z,52.90
2018-09-22T12:46:37.969Z,51.40
2018-09-22T12:49:07.104Z,51.10
2018-09-22T12:51:36.718Z,50.80
2018-09-22T12:54:05.860Z,50.30
2018-09-22T12:56:35.072Z,50.00
2018-09-22T12:59:04.757Z,49.90
2018-09-22T13:01:34.633Z,50.10
2018-09-22T13:04:03.838Z,51.00
2018-09-22T13:06:33.090Z,51.80
2018-09-22T13:09:02.691Z,52.90
2018-09-22T13:11:31.983Z,53.20
2018-09-22T13:14:01.294Z,54.00
2018-09-22T13:16:30.728Z,54.50
2018-09-22T13:18:59.901Z,56.20
2018-09-22T13:21:29.055Z,63.60
2018-09-22T13:23:58.315Z,70.70
2018-09-22T13:26:27.435Z,76.40
2018-09-22T13:28:56.602Z,84.30
2018-09-22T13:31:32.410Z,90.40
2018-09-22T13:34:10.315Z,93.00
2018-09-22T13:42:40.314Z,91.40
2018-09-22T13:45:10.391Z,85.60
2018-09-22T13:47:42.232Z,83.70
2018-09-22T13:50:12.585Z,79.10
2018-09-22T13:52:43.086Z,79.80
2018-09-22T13:55:14.501Z,77.40
2018-09-22T13:57:57.011Z,76.40
2018-09-22T14:00:29.713Z,75.70
2018-09-22T14:03:07.140Z,76.40
2018-09-22T14:05:42.012Z,74.80
2018-09-22T14:08:28.560Z,75.90
2018-09-22T14:11:01.460Z,75.00
2018-09-22T14:13:42.701Z,74.00
2018-09-22T14:19:09.264Z,73.70
2018-09-22T14:22:52.958Z,72.40
2018-09-22T14:25:36.863Z,70.30
2018-09-22T14:28:16.990Z,66.30
2018-09-22T14:30:56.474Z,66.30
2018-09-22T14:33:32.500Z,66.00
2018-09-22T14:36:13.675Z,68.50
2018-09-22T14:38:49.984Z,68.80
2018-09-22T14:44:28.224Z,68.20
2018-09-22T14:50:01.022Z,65.80
2018-09-22T14:52:39.600Z,61.10
2018-09-22T14:55:27.712Z,59.70
2018-09-22T14:58:01.819Z,59.30
2018-09-22T15:18:20.565Z,59.50
2018-09-22T15:20:50.160Z,63.00
2018-09-22T15:23:20.102Z,61.60
2018-09-22T15:25:49.742Z,62.50
2018-09-22T15:28:19.167Z,62.60
2018-09-22T15:30:48.703Z,62.30
2018-09-22T15:33:18.115Z,63.00
2018-09-22T15:35:47.769Z,62.30
2018-09-22T15:38:19.410Z,62.50
2018-09-22T15:40:48.873Z,62.60
2018-09-22T15:43:18.074Z,62.50
2018-09-22T15:45:48.488Z,62.30
2018-09-22T15:48:18.126Z,62.30
2018-09-22T15:50:48.244Z,62.10
2018-09-22T15:53:17.719Z,62.00
2018-09-22T15:55:47.062Z,62.60
2018-09-22T15:58:16.718Z,62.70
2018-09-22T16:00:47.890Z,62.90
2018-09-22T16:03:17.295Z,63.40
2018-09-22T16:05:47.426Z,63.80
2018-09-22T16:08:17.899Z,64.50
2018-09-22T16:10:47.311Z,65.30
2018-09-22T16:13:16.587Z,64.60
2018-09-22T16:15:46.069Z,64.70
2018-09-22T16:18:15.566Z,64.80
2018-09-22T16:20:46.181Z,65.00
2018-09-22T16:23:17.592Z,65.20
2018-09-22T16:25:47.134Z,65.30
2018-09-22T16:28:18.550Z,65.40
2018-09-22T16:30:48.221Z,65.80
2018-09-22T16:33:18.410Z,66.50
2018-09-22T16:35:48.033Z,67.00
2018-09-22T16:38:17.876Z,67.70
2018-09-22T16:40:47.548Z,68.20
2018-09-22T16:43:17.615Z,69.50
2018-09-22T16:45:47.434Z,72.00
2018-09-22T16:48:16.848Z,77.70
2018-09-22T16:50:46.148Z,81.40
2018-09-22T16:53:15.660Z,87.80
2018-09-22T16:55:44.962Z,91.70
2018-09-22T16:58:14.183Z,97.20
2018-09-22T17:00:44.845Z,99.90
2018-09-22T17:03:14.523Z,99.90
2018-09-22T17:05:44.750Z,99.90
2018-09-22T17:08:13.949Z,99.90
2018-09-22T17:10:44.028Z,99.90
2018-09-22T17:13:13.210Z,99.90
2018-09-22T17:15:42.387Z,99.90
2018-09-22T17:18:11.681Z,99.90
2018-09-22T17:20:42.054Z,99.90
2018-09-22T17:23:11.651Z,99.90
2018-09-22T17:25:41.249Z,99.90
2018-09-22T17:28:10.490Z,99.90
2018-09-22T17:30:39.873Z,99.90
2018-09-22T17:33:09.340Z,99.90
2018-09-22T17:35:38.605Z,99.90
2018-09-22T17:38:07.904Z,99.90
2018-09-22T17:40:37.267Z,99.90
2018-09-22T17:43:06.864Z,99.90
2018-09-22T17:45:36.199Z,99.90
2018-09-22T17:48:05.866Z,99.90
2018-09-22T17:50:35.813Z,99.90
2018-09-22T17:53:05.476Z,99.90
2018-09-22T17:55:34.483Z,99.90
2018-09-22T17:58:03.954Z,99.90
2018-09-22T18:00:35.331Z,99.90
2018-09-22T18:03:05.263Z,99.90
2018-09-22T18:05:34.552Z,99.90
2018-09-22T18:08:03.808Z,99.90
2018-09-22T18:10:33.230Z,99.90
2018-09-22T18:13:02.316Z,99.90
2018-09-22T18:15:31.890Z,99.90
2018-09-22T18:18:01.536Z,99.90
2018-09-22T18:20:31.032Z,99.90
2018-09-22T18:23:00.295Z,99.90
2018-09-22T18:25:30.059Z,99.90
2018-09-22T18:27:59.422Z,99.90
2018-09-22T18:30:29.130Z,99.90
2018-09-22T18:32:58.453Z,99.90
2018-09-22T18:35:28.238Z,99.90
2018-09-22T18:37:57.849Z,99.90
2018-09-22T18:40:27.009Z,99.90
2018-09-22T18:42:56.597Z,99.90
2018-09-22T18:45:26.253Z,99.90
2018-09-22T18:47:57.508Z,99.90
2018-09-22T18:50:27.080Z,99.90
2018-09-22T18:52:57.794Z,99.90
2018-09-22T18:55:26.760Z,99.90
2018-09-22T18:57:56.338Z,99.90
2018-09-22T19:00:25.352Z,99.90
2018-09-22T19:02:55.054Z,99.90
2018-09-22T19:05:24.243Z,99.90
2018-09-22T19:07:54.373Z,99.90
2018-09-22T19:10:23.471Z,99.90
2018-09-22T19:12:53.137Z,99.90
2018-09-22T19:15:33.251Z,99.90
2018-09-22T19:19:06.448Z,99.90
2018-09-22T19:21:45.143Z,99.90
2018-09-22T19:24:18.664Z,99.90
2018-09-22T19:26:58.217Z,99.90
2018-09-22T19:29:35.435Z,99.90
2018-09-22T19:32:09.908Z,99.90
2018-09-22T19:34:57.237Z,99.90
2018-09-22T19:37:32.076Z,99.90
2018-09-22T19:40:07.939Z,99.90
2018-09-22T19:42:42.315Z,99.90
2018-09-22T19:45:16.613Z,99.90
2018-09-22T19:47:53.726Z,99.90
2018-09-22T19:51:28.522Z,99.90
2018-09-22T19:54:00.170Z,99.90
2018-09-22T19:56:36.881Z,99.90
2018-09-22T19:59:06.314Z,99.90
2018-09-22T20:01:36.404Z,99.90
2018-09-22T20:04:05.957Z,99.90
2018-09-22T20:06:35.727Z,99.90
2018-09-22T20:09:06.060Z,99.90
2018-09-22T20:11:35.671Z,99.90
2018-09-22T20:14:04.735Z,99.90
2018-09-22T20:16:33.825Z,99.90
2018-09-22T20:19:03.555Z,99.90
2018-09-22T20:21:32.845Z,99.90
2018-09-22T20:24:02.322Z,99.90
2018-09-22T20:26:31.483Z,99.90
2018-09-22T20:29:01.464Z,99.90
2018-09-22T20:31:30.778Z,99.90
2018-09-22T20:34:00.653Z,99.90
2018-09-22T20:36:29.753Z,99.90
2018-09-22T20:38:58.865Z,99.90
2018-09-22T20:41:27.854Z,99.90
2018-09-22T20:43:56.900Z,99.90
2018-09-22T20:46:25.953Z,99.90
2018-09-22T20:48:55.495Z,99.90
2018-09-22T20:51:25.825Z,99.90
2018-09-22T20:53:55.319Z,99.90
2018-09-22T20:56:24.934Z,99.90
2018-09-22T20:58:54.276Z,99.90
2018-09-22T21:01:24.157Z,99.90
2018-09-22T21:03:53.527Z,99.90
2018-09-22T21:06:23.377Z,99.90
2018-09-22T21:08:52.640Z,99.90
2018-09-22T21:11:22.157Z,99.90
2018-09-22T21:13:51.894Z,99.90
2018-09-22T21:16:21.518Z,99.90
2018-09-22T21:18:50.975Z,99.90
2018-09-22T21:21:20.193Z,99.90
2018-09-22T21:23:49.834Z,99.90
2018-09-22T21:26:18.771Z,99.90
2018-09-22T21:28:47.989Z,99.90
2018-09-22T21:31:17.796Z,99.90
2018-09-22T21:33:47.482Z,99.90
2018-09-22T21:36:16.814Z,99.90
2018-09-22T21:38:46.132Z,99.90
2018-09-22T21:41:16.484Z,99.90
2018-09-22T21:43:46.429Z,99.90
2018-09-22T21:46:15.782Z,99.90
2018-09-22T21:48:45.300Z,99.90
2018-09-22T21:51:15.165Z,99.90
2018-09-22T21:53:44.589Z,99.90
2018-09-22T21:56:14.248Z,99.90
2018-09-22T21:58:43.684Z,99.90
2018-09-22T22:01:18.433Z,99.90
2018-09-22T22:03:47.719Z,99.90
2018-09-22T22:06:17.227Z,99.90
2018-09-22T22:08:47.025Z,99.90
2018-09-22T22:11:16.091Z,99.90
2018-09-22T22:13:45.506Z,99.90
2018-09-22T22:16:14.806Z,99.90
2018-09-22T22:18:44.144Z,99.90
2018-09-22T22:21:13.129Z,99.90
2018-09-22T22:23:42.560Z,99.90
2018-09-22T22:26:11.637Z,99.90
2018-09-22T22:28:41.014Z,99.90
2018-09-22T22:31:10.471Z,99.90
2018-09-22T22:33:40.415Z,99.90
2018-09-22T22:36:09.677Z,99.90
2018-09-22T22:38:38.707Z,99.90
2018-09-22T22:41:08.791Z,99.90
2018-09-22T22:43:38.413Z,99.90
2018-09-22T22:46:09.526Z,99.90
2018-09-22T22:48:38.782Z,99.90
2018-09-22T22:51:09.080Z,99.90
2018-09-22T22:53:38.494Z,99.90
2018-09-22T22:56:08.800Z,99.90
2018-09-22T22:58:37.829Z,99.90
2018-09-22T23:01:07.768Z,99.90
2018-09-22T23:03:37.404Z,99.90
2018-09-22T23:06:06.646Z,99.90
2018-09-22T23:08:35.911Z,99.90
2018-09-22T23:11:05.228Z,99.90
2018-09-22T23:13:34.286Z,99.90
2018-09-22T23:16:03.788Z,99.90
2018-09-22T23:18:33.399Z,99.90
2018-09-22T23:21:02.591Z,99.90
2018-09-22T23:23:32.824Z,99.90
2018-09-22T23:26:01.926Z,99.90
2018-09-22T23:28:31.661Z,99.90
2018-09-22T23:31:01.000Z,99.90
2018-09-22T23:33:30.241Z,99.90
2018-09-22T23:35:59.271Z,99.90
2018-09-22T23:38:28.533Z,99.90
2018-09-22T23:40:58.789Z,99.90
2018-09-22T23:43:27.992Z,99.90
2018-09-22T23:45:56.940Z,99.90
2018-09-22T23:48:26.412Z,99.90
2018-09-22T23:50:55.721Z,99.90
2018-09-22T23:53:25.097Z,99.90
2018-09-22T23:55:54.282Z,99.90
2018-09-22T23:58:23.248Z,99.90
